Irondale, Colorado
Current Conditions -  °F | °C
As of 7:53 AM on Wednesday 22 Oct 2014 (Local Time) from KDEN Reporting Station
Broken Clouds Broken Clouds  
Wind Chill: 43°   Ceiling: 22000
Heat Index: 47°   Visibility: 10mi
Dew Point: 42°   Wind: 9mph
Humidity: 83%   Direction: 180°S
Pressure: 30.08"   Gusts: NA
Location:  39.8641°N, 104.821°W
Report Text: KDEN 221353Z 18008KT 10SM FEW080 SCT120 BKN220 08/06 A3008 RMK AO2 SLP136 T00830056
Loading
Personal Weather Stations






























Interactive Weather Map
Tropical Storm Tracking
New forecast layout! Learn more

10-Day Weather Forecast

Advertisements
Track Severe Weather on mobile